createdAt,value
2019-03-20T00:00:33.124Z,5.79
2019-03-20T00:01:43.457Z,5.84
2019-03-20T00:02:33.152Z,5.82
2019-03-20T00:03:33.159Z,5.76
2019-03-20T00:04:33.167Z,5.79
2019-03-20T00:05:33.182Z,5.71
2019-03-20T00:06:33.190Z,5.64
2019-03-20T00:07:33.200Z,5.73
2019-03-20T00:08:33.209Z,5.64
2019-03-20T00:09:33.227Z,5.71
2019-03-20T00:10:33.232Z,5.72
2019-03-20T00:11:33.239Z,5.71
2019-03-20T00:12:33.252Z,5.73
2019-03-20T00:13:33.260Z,5.64
2019-03-20T00:14:33.280Z,5.68
2019-03-20T00:15:33.289Z,5.68
2019-03-20T00:16:33.296Z,5.66
2019-03-20T00:17:33.301Z,5.69
2019-03-20T00:18:33.319Z,5.71
2019-03-20T00:19:33.324Z,5.66
2019-03-20T00:20:33.333Z,5.69
2019-03-20T00:21:33.348Z,5.68
2019-03-20T00:22:33.364Z,5.66
2019-03-20T00:23:33.367Z,5.73
2019-03-20T00:24:33.380Z,5.68
2019-03-20T00:25:33.390Z,5.65
2019-03-20T00:26:33.402Z,5.46
2019-03-20T00:27:33.408Z,5.35
2019-03-20T00:28:33.419Z,5.23
2019-03-20T00:29:33.427Z,5.26
2019-03-20T00:30:33.443Z,5.18
2019-03-20T00:31:33.451Z,5.11
2019-03-20T00:32:33.460Z,5.12
2019-03-20T00:33:33.468Z,5.17
2019-03-20T00:34:33.481Z,5.14
2019-03-20T00:35:33.498Z,5.23
2019-03-20T00:36:33.504Z,5.18
2019-03-20T00:37:33.511Z,5.18
2019-03-20T00:38:33.512Z,5.23
2019-03-20T00:39:33.531Z,5.20
2019-03-20T00:40:33.685Z,5.20
2019-03-20T00:41:33.551Z,5.18
2019-03-20T00:42:35.419Z,5.15
2019-03-20T00:43:33.573Z,5.23
2019-03-20T00:44:33.579Z,5.12
2019-03-20T00:45:33.599Z,5.21
2019-03-20T00:46:33.751Z,5.21
2019-03-20T00:47:33.611Z,5.23
2019-03-20T00:48:33.758Z,5.23
2019-03-20T00:49:33.631Z,5.26
2019-03-20T00:50:34.481Z,5.26
2019-03-20T00:51:33.649Z,5.35
2019-03-20T00:52:33.664Z,5.29
2019-03-20T00:53:33.673Z,5.28
2019-03-20T00:54:33.687Z,5.21
2019-03-20T00:55:33.695Z,5.26
2019-03-20T00:56:33.795Z,5.23
2019-03-20T00:57:33.711Z,5.23
2019-03-20T00:58:33.737Z,5.25
2019-03-20T00:59:33.731Z,5.32
2019-03-20T01:00:33.743Z,5.26
2019-03-20T01:01:33.758Z,5.26
2019-03-20T01:02:33.766Z,5.25
2019-03-20T01:03:33.769Z,5.18
2019-03-20T01:04:33.775Z,5.25
2019-03-20T01:05:33.803Z,5.25
2019-03-20T01:06:33.805Z,5.17
2019-03-20T01:07:33.815Z,5.15
2019-03-20T01:08:33.831Z,5.17
2019-03-20T01:09:33.855Z,5.14
2019-03-20T01:10:33.850Z,5.20
2019-03-20T01:11:33.853Z,5.12
2019-03-20T01:12:33.865Z,5.14
2019-03-20T01:13:33.875Z,5.17
2019-03-20T01:14:33.883Z,5.17
2019-03-20T01:15:33.896Z,5.12
2019-03-20T01:16:33.907Z,5.11
2019-03-20T01:17:33.920Z,5.11
2019-03-20T01:18:33.923Z,5.07
2019-03-20T01:19:33.935Z,5.05
2019-03-20T01:20:33.943Z,5.02
2019-03-20T01:21:33.958Z,5.02
2019-03-20T01:22:33.965Z,5.07
2019-03-20T01:23:33.973Z,5.10
2019-03-20T01:24:33.991Z,5.11
2019-03-20T01:25:35.150Z,5.11
2019-03-20T01:26:34.009Z,5.02
2019-03-20T01:27:34.019Z,5.05
2019-03-20T01:28:34.018Z,4.87
2019-03-20T01:29:34.037Z,4.96
2019-03-20T01:30:34.106Z,4.90
2019-03-20T01:31:34.051Z,4.93
2019-03-20T01:32:34.076Z,4.94
2019-03-20T01:33:34.083Z,5.04
2019-03-20T01:34:34.087Z,5.00
2019-03-20T01:35:34.149Z,5.00
2019-03-20T01:36:34.101Z,5.05
2019-03-20T01:37:34.230Z,4.97
2019-03-20T01:38:34.120Z,4.96
2019-03-20T01:39:34.134Z,4.90
2019-03-20T01:40:34.149Z,4.70
2019-03-20T01:41:38.281Z,4.74
2019-03-20T01:42:34.163Z,4.73
2019-03-20T01:43:34.181Z,4.73
2019-03-20T01:44:34.189Z,4.73
2019-03-20T01:45:34.196Z,4.71
2019-03-20T01:46:34.203Z,4.71
2019-03-20T01:47:34.210Z,4.60
2019-03-20T01:48:34.234Z,4.60
2019-03-20T01:49:34.241Z,4.58
2019-03-20T01:50:34.244Z,4.59
2019-03-20T01:51:34.985Z,4.59
2019-03-20T01:52:34.265Z,4.59
2019-03-20T01:53:34.280Z,4.59
2019-03-20T01:54:34.277Z,4.67
2019-03-20T01:55:34.291Z,4.62
2019-03-20T01:56:34.303Z,4.59
2019-03-20T01:57:34.317Z,4.56
2019-03-20T01:58:34.321Z,4.63
2019-03-20T01:59:34.333Z,4.60
2019-03-20T02:00:34.339Z,4.60
2019-03-20T02:01:34.348Z,4.74
2019-03-20T02:02:34.361Z,4.67
2019-03-20T02:03:34.373Z,4.73
2019-03-20T02:04:34.384Z,4.71
2019-03-20T02:05:36.363Z,4.70
2019-03-20T02:06:34.400Z,4.60
2019-03-20T02:07:34.410Z,4.58
2019-03-20T02:08:34.417Z,4.59
2019-03-20T02:09:34.431Z,4.48
2019-03-20T02:10:34.449Z,4.35
2019-03-20T02:11:34.451Z,4.32
2019-03-20T02:12:34.459Z,4.37
2019-03-20T02:13:34.466Z,4.37
2019-03-20T02:14:34.478Z,4.42
2019-03-20T02:15:39.380Z,4.45
2019-03-20T02:16:34.495Z,4.45
2019-03-20T02:17:34.501Z,4.41
2019-03-20T02:18:34.516Z,4.45
2019-03-20T02:19:34.543Z,4.50
2019-03-20T02:20:34.544Z,4.52
2019-03-20T02:21:34.546Z,4.52
2019-03-20T02:22:34.567Z,4.50
2019-03-20T02:23:34.562Z,4.50
2019-03-20T02:24:34.568Z,4.44
2019-03-20T02:25:34.584Z,4.45
2019-03-20T02:26:34.590Z,4.45
2019-03-20T02:27:34.599Z,4.34
2019-03-20T02:28:34.611Z,4.35
2019-03-20T02:29:34.627Z,4.40
2019-03-20T02:30:34.626Z,4.35
2019-03-20T02:31:34.644Z,4.37
2019-03-20T02:32:34.646Z,4.48
2019-03-20T02:33:34.661Z,4.38
2019-03-20T02:34:34.667Z,4.40
2019-03-20T02:35:34.681Z,4.40
2019-03-20T02:36:34.683Z,4.31
2019-03-20T02:37:34.697Z,4.30
2019-03-20T02:38:34.706Z,4.35
2019-03-20T02:39:34.735Z,4.28
2019-03-20T02:40:34.721Z,4.24
2019-03-20T02:41:34.735Z,4.17
2019-03-20T02:42:34.749Z,4.23
2019-03-20T02:43:34.766Z,4.19
2019-03-20T02:44:34.768Z,4.24
2019-03-20T02:45:34.773Z,4.32
2019-03-20T02:46:34.785Z,4.22
2019-03-20T02:47:34.801Z,4.32
2019-03-20T02:48:34.800Z,4.22
2019-03-20T02:49:34.807Z,4.23
2019-03-20T02:50:34.818Z,4.22
2019-03-20T02:51:34.831Z,4.22
2019-03-20T02:52:34.843Z,4.20
2019-03-20T02:53:34.852Z,4.20
2019-03-20T02:54:34.859Z,4.14
2019-03-20T02:55:34.875Z,4.14
2019-03-20T02:56:34.871Z,4.20
2019-03-20T02:57:34.887Z,4.13
2019-03-20T02:58:34.903Z,4.17
2019-03-20T02:59:34.903Z,4.20
2019-03-20T03:00:34.911Z,4.22
2019-03-20T03:01:34.930Z,4.13
2019-03-20T03:02:34.931Z,4.16
2019-03-20T03:03:34.948Z,4.23
2019-03-20T03:04:34.956Z,4.22
2019-03-20T03:05:34.961Z,4.14
2019-03-20T03:06:34.974Z,4.19
2019-03-20T03:07:34.993Z,4.24
2019-03-20T03:08:35.000Z,4.26
2019-03-20T03:09:34.996Z,4.19
2019-03-20T03:10:35.009Z,4.19
2019-03-20T03:11:35.018Z,4.24
2019-03-20T03:12:35.029Z,4.14
2019-03-20T03:13:35.036Z,4.14
2019-03-20T03:14:35.046Z,4.12
2019-03-20T03:15:35.058Z,4.16
2019-03-20T03:16:35.071Z,4.22
2019-03-20T03:17:35.083Z,4.17
2019-03-20T03:18:35.087Z,4.14
2019-03-20T03:19:35.106Z,4.13
2019-03-20T03:20:35.107Z,4.12
2019-03-20T03:21:35.113Z,4.10
2019-03-20T03:22:35.124Z,4.12
2019-03-20T03:23:35.135Z,4.10
2019-03-20T03:24:35.144Z,4.01
2019-03-20T03:25:35.153Z,4.05
2019-03-20T03:26:35.159Z,4.05
2019-03-20T03:27:35.175Z,4.19
2019-03-20T03:28:35.182Z,4.22
2019-03-20T03:29:35.193Z,4.20
2019-03-20T03:30:35.196Z,4.10
2019-03-20T03:31:35.219Z,4.17
2019-03-20T03:32:35.222Z,4.22
2019-03-20T03:33:35.232Z,4.22
2019-03-20T03:34:35.244Z,4.06
2019-03-20T03:35:35.245Z,4.04
2019-03-20T03:36:35.251Z,3.98
2019-03-20T03:37:35.273Z,4.01
2019-03-20T03:38:35.277Z,3.96
2019-03-20T03:39:35.287Z,3.96
2019-03-20T03:40:35.291Z,3.92
2019-03-20T03:41:35.299Z,3.92
2019-03-20T03:42:35.329Z,3.86
2019-03-20T03:43:35.320Z,3.87
2019-03-20T03:44:35.327Z,3.91
2019-03-20T03:45:35.341Z,3.78
2019-03-20T03:46:35.347Z,3.84
2019-03-20T03:47:35.381Z,3.77
2019-03-20T03:48:35.366Z,3.88
2019-03-20T03:49:35.371Z,3.91
2019-03-20T03:50:35.385Z,3.84
2019-03-20T03:51:35.392Z,3.92
2019-03-20T03:52:35.446Z,3.83
2019-03-20T03:53:35.410Z,3.92
2019-03-20T03:54:35.420Z,3.87
2019-03-20T03:55:35.433Z,3.92
2019-03-20T03:56:35.447Z,3.98
2019-03-20T03:57:35.463Z,4.01
2019-03-20T03:58:35.451Z,4.08
2019-03-20T03:59:35.485Z,4.08
2019-03-20T04:00:35.475Z,4.04
2019-03-20T04:01:35.495Z,4.10
2019-03-20T04:02:35.513Z,3.98
2019-03-20T04:03:35.502Z,4.01
2019-03-20T04:04:35.512Z,3.99
2019-03-20T04:05:35.526Z,3.95
2019-03-20T04:06:36.229Z,3.99
2019-03-20T04:07:35.549Z,4.04
2019-03-20T04:08:35.547Z,3.96
2019-03-20T04:09:35.562Z,4.01
2019-03-20T04:10:35.576Z,4.06
2019-03-20T04:11:35.574Z,3.91
2019-03-20T04:12:35.583Z,3.92
2019-03-20T04:13:35.596Z,3.92
2019-03-20T04:14:35.601Z,3.91
2019-03-20T04:15:36.518Z,3.86
2019-03-20T04:16:35.642Z,3.86
2019-03-20T04:17:35.639Z,3.77
2019-03-20T04:18:35.659Z,3.74
2019-03-20T04:19:35.650Z,3.80
2019-03-20T04:20:35.661Z,3.68
2019-03-20T04:21:35.664Z,3.78
2019-03-20T04:22:35.680Z,3.68
2019-03-20T04:23:35.681Z,3.70
2019-03-20T04:24:35.699Z,3.68
2019-03-20T04:25:35.704Z,3.70
2019-03-20T04:26:35.736Z,3.66
2019-03-20T04:27:35.718Z,3.66
2019-03-20T04:28:35.742Z,3.56
2019-03-20T04:29:35.738Z,3.58
2019-03-20T04:30:35.753Z,3.60
2019-03-20T04:31:35.764Z,3.65
2019-03-20T04:32:35.789Z,3.58
2019-03-20T04:33:35.784Z,3.62
2019-03-20T04:34:35.791Z,3.58
2019-03-20T04:35:35.792Z,3.56
2019-03-20T04:36:46.849Z,3.55
2019-03-20T04:37:35.820Z,3.59
2019-03-20T04:38:35.823Z,3.55
2019-03-20T04:39:35.822Z,3.50
2019-03-20T04:40:35.838Z,3.58
2019-03-20T04:41:35.847Z,3.51
2019-03-20T04:42:35.858Z,3.68
2019-03-20T04:43:35.880Z,3.63
2019-03-20T04:44:35.876Z,3.69
2019-03-20T04:45:35.882Z,3.63
2019-03-20T04:46:35.896Z,3.63
2019-03-20T04:47:35.904Z,3.73
2019-03-20T04:48:35.912Z,3.69
2019-03-20T04:49:35.924Z,3.69
2019-03-20T04:50:35.925Z,3.73
2019-03-20T04:51:35.936Z,3.68
2019-03-20T04:52:35.952Z,3.56
2019-03-20T04:53:35.955Z,3.60
2019-03-20T04:54:35.969Z,3.62
2019-03-20T04:55:35.974Z,3.53
2019-03-20T04:56:35.986Z,3.53
2019-03-20T04:57:35.996Z,3.65
2019-03-20T04:58:36.006Z,3.68
2019-03-20T04:59:36.011Z,3.73
2019-03-20T05:00:36.025Z,3.65
2019-03-20T05:01:36.028Z,3.63
2019-03-20T05:02:36.047Z,3.58
2019-03-20T05:03:36.051Z,3.62
2019-03-20T05:04:36.058Z,3.51
2019-03-20T05:05:36.064Z,3.47
2019-03-20T05:06:36.072Z,3.48
2019-03-20T05:07:36.084Z,3.34
2019-03-20T05:08:36.104Z,3.32
2019-03-20T05:09:36.157Z,3.51
2019-03-20T05:10:36.108Z,3.32
2019-03-20T05:11:36.118Z,3.31
2019-03-20T05:12:36.132Z,3.40
2019-03-20T05:13:36.140Z,3.34
2019-03-20T05:14:36.150Z,3.36
2019-03-20T05:15:36.155Z,3.37
2019-03-20T05:16:36.161Z,3.34
2019-03-20T05:17:36.163Z,3.28
2019-03-20T05:18:36.184Z,3.31
2019-03-20T05:19:36.996Z,3.26
2019-03-20T05:20:36.199Z,3.37
2019-03-20T05:21:36.202Z,3.29
2019-03-20T05:22:36.221Z,3.32
2019-03-20T05:23:36.240Z,3.25
2019-03-20T05:24:36.238Z,3.29
2019-03-20T05:25:36.243Z,3.36
2019-03-20T05:26:36.250Z,3.36
2019-03-20T05:27:36.260Z,3.32
2019-03-20T05:28:36.270Z,3.28
2019-03-20T05:29:36.362Z,3.26
2019-03-20T05:30:36.284Z,3.21
2019-03-20T05:31:36.301Z,3.22
2019-03-20T05:32:36.304Z,3.28
2019-03-20T05:33:36.316Z,3.13
2019-03-20T05:34:36.322Z,3.23
2019-03-20T05:35:36.332Z,3.18
2019-03-20T05:36:36.339Z,3.21
2019-03-20T05:37:36.368Z,3.19
2019-03-20T05:38:36.360Z,3.25
2019-03-20T05:39:36.375Z,3.28
2019-03-20T05:40:36.376Z,3.36
2019-03-20T05:41:36.399Z,3.31
2019-03-20T05:42:36.392Z,3.45
2019-03-20T05:43:36.412Z,3.34
2019-03-20T05:44:36.410Z,3.37
2019-03-20T05:45:36.425Z,3.36
2019-03-20T05:46:36.428Z,3.32
2019-03-20T05:47:36.434Z,3.34
2019-03-20T05:48:36.438Z,3.36
2019-03-20T05:49:36.448Z,3.34
2019-03-20T05:50:36.460Z,3.26
2019-03-20T05:51:36.474Z,3.29
2019-03-20T05:52:36.476Z,3.31
2019-03-20T05:53:36.488Z,3.34
2019-03-20T05:54:36.496Z,3.31
2019-03-20T05:55:36.504Z,3.23
2019-03-20T05:56:36.510Z,3.31
2019-03-20T05:57:36.528Z,3.28
2019-03-20T05:58:36.530Z,3.28
2019-03-20T05:59:36.541Z,3.29
2019-03-20T06:00:36.549Z,3.42
2019-03-20T06:01:36.555Z,3.34
2019-03-20T06:02:36.567Z,3.42
2019-03-20T06:03:36.574Z,3.36
2019-03-20T06:04:36.583Z,3.48
2019-03-20T06:05:36.593Z,3.44
2019-03-20T06:06:36.597Z,3.59
2019-03-20T06:07:36.605Z,3.58
2019-03-20T06:08:36.619Z,3.55
2019-03-20T06:09:36.625Z,3.70
2019-03-20T06:10:36.633Z,3.66
2019-03-20T06:11:36.643Z,3.65
2019-03-20T06:12:36.653Z,3.53
2019-03-20T06:13:36.659Z,3.53
2019-03-20T06:14:36.669Z,3.48
2019-03-20T06:15:36.685Z,3.48
2019-03-20T06:16:36.679Z,3.32
2019-03-20T06:17:36.698Z,3.34
2019-03-20T06:18:36.693Z,3.34
2019-03-20T06:19:36.713Z,3.36
2019-03-20T06:20:37.503Z,3.40
2019-03-20T06:21:36.733Z,3.34
2019-03-20T06:22:36.735Z,3.44
2019-03-20T06:23:36.748Z,3.51
2019-03-20T06:24:36.774Z,3.59
2019-03-20T06:25:36.766Z,3.55
2019-03-20T06:26:36.791Z,3.68
2019-03-20T06:27:36.782Z,3.70
2019-03-20T06:28:36.790Z,3.74
2019-03-20T06:29:36.798Z,3.70
2019-03-20T06:30:36.830Z,3.77
2019-03-20T06:31:36.817Z,3.74
2019-03-20T06:32:36.900Z,3.73
2019-03-20T06:33:36.838Z,3.73
2019-03-20T06:34:36.852Z,3.83
2019-03-20T06:35:36.852Z,3.91
2019-03-20T06:36:36.878Z,3.91
2019-03-20T06:37:36.870Z,3.86
2019-03-20T06:38:36.891Z,3.99
2019-03-20T06:39:36.890Z,4.12
2019-03-20T06:40:36.908Z,4.17
2019-03-20T06:41:36.906Z,4.31
2019-03-20T06:42:36.954Z,4.48
2019-03-20T06:43:36.932Z,4.34
2019-03-20T06:44:36.938Z,4.24
2019-03-20T06:45:36.943Z,4.32
2019-03-20T06:46:36.945Z,4.34
2019-03-20T06:47:36.972Z,4.35
2019-03-20T06:48:36.961Z,4.45
2019-03-20T06:49:36.979Z,4.66
2019-03-20T06:50:36.990Z,4.60
2019-03-20T06:51:36.999Z,4.74
2019-03-20T06:52:37.012Z,4.77
2019-03-20T06:53:37.022Z,4.74
2019-03-20T06:54:37.023Z,4.60
2019-03-20T06:55:37.038Z,4.67
2019-03-20T06:56:37.048Z,4.92
2019-03-20T06:57:37.051Z,5.04
2019-03-20T06:58:37.069Z,5.20
2019-03-20T06:59:37.072Z,5.23
2019-03-20T07:00:37.084Z,5.20
2019-03-20T07:01:37.102Z,5.28
2019-03-20T07:02:37.104Z,5.20
2019-03-20T07:03:37.113Z,5.14
2019-03-20T07:04:37.139Z,5.11
2019-03-20T07:05:37.128Z,5.12
2019-03-20T07:06:37.146Z,5.23
2019-03-20T07:07:44.123Z,5.21
2019-03-20T07:08:37.161Z,5.25
2019-03-20T07:09:37.173Z,5.35
2019-03-20T07:10:37.185Z,5.38
2019-03-20T07:11:37.189Z,5.43
2019-03-20T07:12:37.197Z,5.43
2019-03-20T07:13:37.208Z,5.32
2019-03-20T07:14:37.217Z,5.44
2019-03-20T07:15:37.230Z,5.33
2019-03-20T07:16:37.241Z,5.36
2019-03-20T07:17:37.257Z,5.20
2019-03-20T07:18:37.259Z,5.30
2019-03-20T07:19:37.272Z,5.26
2019-03-20T07:20:37.279Z,5.32
2019-03-20T07:21:37.292Z,5.43
2019-03-20T07:22:37.305Z,5.53
2019-03-20T07:23:37.357Z,5.51
2019-03-20T07:24:37.322Z,5.69
2019-03-20T07:25:37.329Z,5.68
2019-03-20T07:26:37.348Z,5.73
2019-03-20T07:27:37.353Z,5.73
2019-03-20T07:28:37.363Z,5.86
2019-03-20T07:29:37.373Z,5.80
2019-03-20T07:30:37.383Z,5.84
2019-03-20T07:31:37.391Z,5.83
2019-03-20T07:32:37.403Z,5.93
2019-03-20T07:33:37.419Z,5.87
2019-03-20T07:34:37.436Z,5.90
2019-03-20T07:35:37.455Z,5.86
2019-03-20T07:36:37.443Z,5.93
2019-03-20T07:37:37.455Z,5.83
2019-03-20T07:38:37.468Z,5.83
2019-03-20T07:39:37.481Z,5.89
2019-03-20T07:40:37.490Z,5.93
2019-03-20T07:41:37.501Z,5.98
2019-03-20T07:42:37.515Z,5.91
2019-03-20T07:43:37.529Z,5.87
2019-03-20T07:44:37.537Z,5.86
2019-03-20T07:45:37.545Z,5.84
2019-03-20T07:46:37.553Z,5.91
2019-03-20T07:47:37.561Z,5.97
2019-03-20T07:48:37.581Z,5.98
2019-03-20T07:49:37.590Z,5.94
2019-03-20T07:50:37.603Z,6.05
2019-03-20T07:51:37.608Z,5.99
2019-03-20T07:52:37.623Z,6.17
2019-03-20T07:53:37.634Z,6.17
2019-03-20T07:54:37.642Z,6.12
2019-03-20T07:55:37.653Z,6.12
2019-03-20T07:56:37.665Z,6.27
2019-03-20T07:57:37.675Z,6.26
2019-03-20T07:58:37.690Z,6.24
2019-03-20T07:59:37.701Z,6.33
2019-03-20T08:00:37.707Z,6.31
2019-03-20T08:01:37.721Z,6.31
2019-03-20T08:02:37.729Z,6.35
2019-03-20T08:03:37.737Z,6.45
2019-03-20T08:04:37.758Z,6.45
2019-03-20T08:05:37.764Z,6.49
2019-03-20T08:06:37.775Z,6.56
2019-03-20T08:07:37.787Z,6.54
2019-03-20T08:08:37.797Z,6.52
2019-03-20T08:09:37.884Z,6.54
2019-03-20T08:10:37.833Z,6.52
2019-03-20T08:11:37.832Z,6.57
2019-03-20T08:12:37.839Z,6.59
2019-03-20T08:13:37.855Z,6.56
2019-03-20T08:14:37.869Z,6.63
2019-03-20T08:15:37.875Z,6.63
2019-03-20T08:16:37.885Z,6.62
2019-03-20T08:17:37.896Z,6.62
2019-03-20T08:18:37.909Z,6.54
2019-03-20T08:19:37.923Z,6.51
2019-03-20T08:20:37.933Z,6.52
2019-03-20T08:21:37.941Z,6.63
2019-03-20T08:22:37.953Z,6.67
2019-03-20T08:23:37.963Z,6.63
2019-03-20T08:24:37.983Z,6.60
2019-03-20T08:25:37.996Z,6.63
2019-03-20T08:26:38.001Z,6.56
2019-03-20T08:27:38.007Z,6.66
2019-03-20T08:28:38.025Z,6.64
2019-03-20T08:29:38.040Z,6.56
2019-03-20T08:30:38.049Z,6.56
2019-03-20T08:31:38.062Z,6.64
2019-03-20T08:32:38.064Z,6.66
2019-03-20T08:33:38.085Z,6.75
2019-03-20T08:34:38.102Z,6.85
2019-03-20T08:35:38.109Z,6.87
2019-03-20T08:36:38.113Z,6.88
2019-03-20T08:37:38.128Z,6.93
2019-03-20T08:38:38.135Z,6.93
2019-03-20T08:39:38.151Z,6.93
2019-03-20T08:40:38.158Z,7.02
2019-03-20T08:41:38.168Z,7.13
2019-03-20T08:42:38.181Z,7.20
2019-03-20T08:43:38.201Z,7.20
2019-03-20T08:44:38.207Z,7.25
2019-03-20T08:45:38.217Z,7.38
2019-03-20T08:46:38.231Z,7.39
2019-03-20T08:47:38.236Z,7.47
2019-03-20T08:48:38.253Z,7.48
2019-03-20T08:49:39.018Z,7.50
2019-03-20T08:50:38.277Z,7.51
2019-03-20T08:51:38.285Z,7.50
2019-03-20T08:52:38.301Z,7.63
2019-03-20T08:53:38.444Z,7.54
2019-03-20T08:54:38.345Z,7.47
2019-03-20T08:55:38.339Z,7.45
2019-03-20T08:56:38.362Z,7.47
2019-03-20T08:57:38.363Z,7.53
2019-03-20T08:58:38.367Z,7.51
2019-03-20T08:59:38.461Z,7.66
2019-03-20T09:00:38.402Z,7.66
2019-03-20T09:01:38.483Z,7.57
2019-03-20T09:02:38.415Z,7.75
2019-03-20T09:03:38.436Z,7.76
2019-03-20T09:04:38.445Z,7.83
2019-03-20T09:05:38.464Z,7.91
2019-03-20T09:06:38.464Z,7.98
2019-03-20T09:07:46.954Z,8.00
2019-03-20T09:08:38.493Z,8.03
2019-03-20T09:09:38.499Z,8.13
2019-03-20T09:10:38.514Z,8.13
2019-03-20T09:11:38.533Z,8.24
2019-03-20T09:12:38.540Z,8.18
2019-03-20T09:13:38.551Z,8.18
2019-03-20T09:14:38.568Z,8.26
2019-03-20T09:15:38.574Z,8.30
2019-03-20T09:16:38.589Z,8.33
2019-03-20T09:17:38.610Z,8.44
2019-03-20T09:18:38.610Z,8.28
2019-03-20T09:19:38.629Z,8.41
2019-03-20T09:20:38.639Z,8.31
2019-03-20T09:21:38.657Z,8.33
2019-03-20T09:22:38.663Z,8.33
2019-03-20T09:23:40.762Z,8.36
2019-03-20T09:24:38.690Z,8.27
2019-03-20T09:25:38.708Z,8.38
2019-03-20T09:26:38.715Z,8.34
2019-03-20T09:27:38.725Z,8.58
2019-03-20T09:28:38.744Z,8.58
2019-03-20T09:29:41.069Z,8.70
2019-03-20T09:30:38.763Z,8.69
2019-03-20T09:31:38.773Z,8.73
2019-03-20T09:32:39.525Z,8.74
2019-03-20T09:33:38.802Z,8.81
2019-03-20T09:34:38.875Z,8.87
2019-03-20T09:35:38.859Z,8.79
2019-03-20T09:36:43.043Z,8.94
2019-03-20T09:37:38.849Z,9.11
2019-03-20T09:38:43.385Z,9.10
2019-03-20T09:39:38.875Z,9.21
2019-03-20T09:40:38.965Z,9.28
2019-03-20T09:41:38.901Z,9.32
2019-03-20T09:42:38.975Z,9.37
2019-03-20T09:43:38.924Z,9.50
2019-03-20T09:44:38.957Z,9.48
2019-03-20T09:45:38.960Z,9.62
2019-03-20T09:46:38.971Z,9.73
2019-03-20T09:47:38.983Z,9.66
2019-03-20T09:48:38.998Z,9.69
2019-03-20T09:49:39.017Z,9.66
2019-03-20T09:50:39.021Z,9.69
2019-03-20T09:51:39.027Z,9.76
2019-03-20T09:52:39.047Z,9.79
2019-03-20T09:53:39.065Z,9.74
2019-03-20T09:54:39.074Z,9.80
2019-03-20T09:55:39.090Z,9.74
2019-03-20T09:56:39.098Z,9.73
2019-03-20T09:57:39.114Z,9.76
2019-03-20T09:58:39.120Z,9.82
2019-03-20T09:59:39.139Z,9.89
2019-03-20T10:00:39.153Z,9.95
2019-03-20T10:01:39.167Z,10.09
2019-03-20T10:02:39.179Z,10.12
2019-03-20T10:03:39.200Z,10.20
2019-03-20T10:04:39.205Z,10.37
2019-03-20T10:05:39.217Z,10.57
2019-03-20T10:06:39.244Z,10.57
2019-03-20T10:07:39.253Z,10.44
2019-03-20T10:08:39.259Z,10.31
2019-03-20T10:09:39.277Z,10.28
2019-03-20T10:10:39.290Z,10.33
2019-03-20T10:11:39.303Z,10.31
2019-03-20T10:12:39.361Z,10.38
2019-03-20T10:13:39.327Z,10.57
2019-03-20T10:14:39.348Z,10.79
2019-03-20T10:15:39.349Z,10.89
2019-03-20T10:16:39.377Z,11.02
2019-03-20T10:17:39.415Z,11.05
2019-03-20T10:18:39.404Z,10.99
2019-03-20T10:19:39.415Z,11.11
2019-03-20T10:20:39.436Z,11.10
2019-03-20T10:21:39.444Z,11.10
2019-03-20T10:22:39.461Z,11.27
2019-03-20T10:23:39.465Z,11.36
2019-03-20T10:24:39.493Z,11.35
2019-03-20T10:25:44.611Z,11.40
2019-03-20T10:26:39.516Z,11.43
2019-03-20T10:27:39.532Z,11.63
2019-03-20T10:28:39.549Z,11.86
2019-03-20T10:29:39.561Z,11.68
2019-03-20T10:30:39.584Z,11.77
2019-03-20T10:31:39.591Z,11.62
2019-03-20T10:32:39.618Z,11.52
2019-03-20T10:33:39.624Z,11.60
2019-03-20T10:34:39.860Z,11.69
2019-03-20T10:35:49.659Z,11.70
2019-03-20T10:36:39.669Z,11.80
2019-03-20T10:37:39.687Z,11.83
2019-03-20T10:38:39.732Z,11.95
2019-03-20T10:39:39.711Z,11.99
2019-03-20T10:40:39.733Z,12.20
2019-03-20T10:41:39.747Z,11.99
2019-03-20T10:42:39.767Z,12.21
2019-03-20T10:43:39.776Z,12.07
2019-03-20T10:44:39.793Z,11.86
2019-03-20T10:45:39.814Z,11.99
2019-03-20T10:46:39.824Z,11.72
2019-03-20T10:47:39.844Z,11.75
2019-03-20T10:48:39.857Z,11.72
2019-03-20T10:49:39.881Z,11.84
2019-03-20T10:50:39.888Z,11.90
2019-03-20T10:51:39.913Z,11.95
2019-03-20T10:52:39.922Z,12.02
2019-03-20T10:53:39.937Z,12.07
2019-03-20T10:54:39.961Z,12.29
2019-03-20T10:55:39.966Z,12.32
2019-03-20T10:56:39.979Z,12.46
2019-03-20T10:57:40.004Z,12.67
2019-03-20T10:58:40.010Z,12.75
2019-03-20T10:59:40.029Z,12.94
2019-03-20T11:00:40.887Z,13.04
2019-03-20T11:01:42.735Z,13.42
2019-03-20T11:02:40.080Z,13.79
2019-03-20T11:03:40.087Z,13.83
2019-03-20T11:04:40.107Z,13.68
2019-03-20T11:05:40.120Z,13.71
2019-03-20T11:06:40.144Z,13.68
2019-03-20T11:07:40.154Z,13.65
2019-03-20T11:08:40.170Z,13.65
2019-03-20T11:09:40.184Z,13.57
2019-03-20T11:10:40.216Z,13.78
2019-03-20T11:11:40.213Z,13.79
2019-03-20T11:12:40.239Z,13.65
2019-03-20T11:13:40.253Z,13.57
2019-03-20T11:14:40.270Z,13.19
2019-03-20T11:15:40.281Z,13.38
2019-03-20T11:16:40.310Z,13.50
2019-03-20T11:17:40.327Z,13.79
2019-03-20T11:18:40.335Z,13.90
2019-03-20T11:19:40.354Z,14.20
2019-03-20T11:20:40.369Z,14.36
2019-03-20T11:21:40.394Z,14.55
2019-03-20T11:22:40.400Z,14.35
2019-03-20T11:23:40.428Z,14.28
2019-03-20T11:24:40.441Z,14.10
2019-03-20T11:25:40.457Z,14.03
2019-03-20T11:26:40.465Z,14.18
2019-03-20T11:27:40.489Z,14.32
2019-03-20T11:28:40.497Z,14.40
2019-03-20T11:29:40.519Z,14.33
2019-03-20T11:30:40.531Z,14.22
2019-03-20T11:31:40.552Z,14.30
2019-03-20T11:32:40.566Z,14.48
2019-03-20T11:33:40.587Z,14.59
2019-03-20T11:34:40.604Z,14.62
2019-03-20T11:35:42.489Z,14.65
2019-03-20T11:36:40.637Z,14.51
2019-03-20T11:37:40.655Z,14.66
2019-03-20T11:38:40.677Z,14.97
2019-03-20T11:39:40.687Z,14.96
2019-03-20T11:40:40.710Z,15.06
2019-03-20T11:41:40.725Z,14.91
2019-03-20T11:42:40.944Z,14.97
2019-03-20T11:43:40.757Z,15.10
2019-03-20T11:44:40.779Z,14.84
2019-03-20T11:45:40.797Z,14.89
2019-03-20T11:46:40.806Z,14.63
2019-03-20T11:47:40.831Z,14.70
2019-03-20T11:48:40.843Z,14.77
2019-03-20T11:49:40.874Z,15.02
2019-03-20T11:50:40.889Z,15.24
2019-03-20T11:51:40.901Z,15.21
2019-03-20T11:52:40.933Z,14.84
2019-03-20T11:53:40.937Z,15.10
2019-03-20T11:54:40.963Z,15.04
2019-03-20T11:55:40.977Z,14.97
2019-03-20T11:56:40.999Z,14.81
2019-03-20T11:57:41.023Z,14.77
2019-03-20T11:58:41.027Z,14.77
2019-03-20T11:59:41.052Z,14.78
2019-03-20T12:00:41.059Z,14.77
2019-03-20T12:01:41.095Z,14.78
2019-03-20T12:02:41.100Z,14.92
2019-03-20T12:03:41.121Z,15.15
2019-03-20T12:04:41.133Z,15.21
2019-03-20T12:05:41.153Z,15.37
2019-03-20T12:06:41.176Z,15.65
2019-03-20T12:07:41.195Z,15.91
2019-03-20T12:08:41.209Z,16.31
2019-03-20T12:09:41.522Z,16.65
2019-03-20T12:10:41.244Z,16.83
2019-03-20T12:11:45.791Z,17.01
2019-03-20T12:12:41.279Z,17.05
2019-03-20T12:13:41.298Z,17.38
2019-03-20T12:14:41.317Z,17.27
2019-03-20T12:15:41.344Z,16.76
2019-03-20T12:16:41.355Z,16.61
2019-03-20T12:17:41.380Z,16.51
2019-03-20T12:18:41.397Z,16.42
2019-03-20T12:19:45.159Z,16.26
2019-03-20T12:20:41.431Z,16.16
2019-03-20T12:21:41.447Z,16.21
2019-03-20T12:22:41.472Z,16.66
2019-03-20T12:23:41.489Z,16.74
2019-03-20T12:24:41.509Z,16.74
2019-03-20T12:25:41.533Z,16.79
2019-03-20T12:26:41.551Z,16.66
2019-03-20T12:27:41.571Z,17.02
2019-03-20T12:28:41.582Z,17.08
2019-03-20T12:29:41.609Z,17.12
2019-03-20T12:30:41.635Z,17.49
2019-03-20T12:31:41.647Z,17.82
2019-03-20T12:32:41.689Z,18.01
2019-03-20T12:33:41.693Z,18.03
2019-03-20T12:34:41.717Z,18.33
2019-03-20T12:35:41.731Z,18.80
2019-03-20T12:36:41.762Z,19.21
2019-03-20T12:37:41.771Z,19.18
2019-03-20T12:38:41.797Z,19.49
2019-03-20T12:39:52.618Z,19.51
2019-03-20T12:40:41.839Z,19.08
2019-03-20T12:41:41.859Z,19.31
2019-03-20T12:42:41.882Z,18.71
2019-03-20T12:43:41.920Z,18.19
2019-03-20T12:44:41.941Z,17.97
2019-03-20T12:45:41.949Z,17.98
2019-03-20T12:46:42.099Z,18.11
2019-03-20T12:47:42.000Z,18.22
2019-03-20T12:48:42.017Z,17.82
2019-03-20T12:49:42.068Z,17.22
2019-03-20T12:50:42.079Z,16.78
2019-03-20T12:51:42.085Z,16.83
2019-03-20T12:52:42.103Z,16.72
2019-03-20T12:53:42.124Z,16.61
2019-03-20T12:54:42.149Z,16.49
2019-03-20T12:55:42.168Z,15.97
2019-03-20T12:56:42.191Z,16.17
2019-03-20T12:57:42.210Z,16.42
2019-03-20T12:58:42.224Z,16.32
2019-03-20T12:59:42.250Z,16.36
2019-03-20T13:00:42.285Z,16.15
2019-03-20T13:01:42.296Z,16.12
2019-03-20T13:02:42.316Z,15.97
2019-03-20T13:03:42.334Z,15.83
2019-03-20T13:04:42.356Z,15.72
2019-03-20T13:05:42.376Z,15.31
2019-03-20T13:06:42.396Z,15.22
2019-03-20T13:07:42.430Z,15.03
2019-03-20T13:08:42.437Z,15.06
2019-03-20T13:09:42.540Z,15.11
2019-03-20T13:10:42.479Z,15.14
2019-03-20T13:11:43.096Z,15.04
2019-03-20T13:12:42.514Z,15.10